createdAt,value
2022-10-18T00:00:03.559Z,10.81
2022-10-18T00:02:34.657Z,10.80
2022-10-18T00:05:03.658Z,10.80
2022-10-18T00:07:32.399Z,10.75
2022-10-18T00:10:00.997Z,10.74
2022-10-18T00:12:29.441Z,10.70
2022-10-18T00:14:57.906Z,10.66
2022-10-18T00:17:26.429Z,10.61
2022-10-18T00:19:56.238Z,10.58
2022-10-18T00:22:25.483Z,10.57
2022-10-18T00:24:54.200Z,10.53
2022-10-18T00:27:22.614Z,10.50
2022-10-18T00:29:53.756Z,10.48
2022-10-18T00:32:22.026Z,10.45
2022-10-18T00:34:50.829Z,10.41
2022-10-18T00:37:24.327Z,10.37
2022-10-18T00:42:23.815Z,10.27
2022-10-18T00:45:06.843Z,10.23
2022-10-18T00:47:36.994Z,10.25
2022-10-18T00:50:09.097Z,10.21
2022-10-18T00:52:43.467Z,10.21
2022-10-18T00:55:12.772Z,10.17
2022-10-18T00:57:44.403Z,10.12
2022-10-18T01:00:14.696Z,10.11
2022-10-18T01:02:46.275Z,10.07
2022-10-18T01:05:20.273Z,10.06
2022-10-18T01:08:16.320Z,10.03
2022-10-18T01:10:55.622Z,9.95
2022-10-18T01:13:34.813Z,9.95
2022-10-18T01:16:10.412Z,9.88
2022-10-18T01:18:44.778Z,9.88
2022-10-18T01:21:24.597Z,9.84
2022-10-18T01:24:13.677Z,9.81
2022-10-18T01:27:02.530Z,9.79
2022-10-18T01:29:45.330Z,9.77
2022-10-18T01:32:20.270Z,9.73
2022-10-18T01:34:52.583Z,9.70
2022-10-18T01:37:23.584Z,9.69
2022-10-18T01:39:55.005Z,9.65
2022-10-18T01:42:24.111Z,9.64
2022-10-18T01:44:54.335Z,9.59
2022-10-18T01:47:25.123Z,9.57
2022-10-18T01:50:00.233Z,9.55
2022-10-18T01:52:30.496Z,9.52
2022-10-18T01:55:01.596Z,9.54
2022-10-18T01:57:39.089Z,9.52
2022-10-18T02:00:14.675Z,9.52
2022-10-18T02:02:48.893Z,9.50
2022-10-18T02:05:27.396Z,9.47
2022-10-18T02:08:22.035Z,9.45
2022-10-18T02:10:59.987Z,9.44
2022-10-18T02:13:34.517Z,9.37
2022-10-18T02:16:09.130Z,9.36
2022-10-18T02:18:51.798Z,9.43
2022-10-18T02:21:22.792Z,9.45
2022-10-18T02:23:51.833Z,9.39
2022-10-18T02:26:20.306Z,9.35
2022-10-18T02:28:49.277Z,9.31
2022-10-18T02:31:23.394Z,9.28
2022-10-18T02:33:57.268Z,9.27
2022-10-18T02:36:29.973Z,9.24
2022-10-18T02:39:14.386Z,9.20
2022-10-18T02:41:43.499Z,9.18
2022-10-18T02:44:12.258Z,9.18
2022-10-18T02:46:41.508Z,9.17
2022-10-18T02:49:11.295Z,9.16
2022-10-18T02:51:39.744Z,9.13
2022-10-18T02:54:08.639Z,9.12
2022-10-18T02:56:37.445Z,9.11
2022-10-18T02:59:07.454Z,9.06
2022-10-18T03:01:36.269Z,9.02
2022-10-18T03:04:05.741Z,9.01
2022-10-18T03:06:35.989Z,9.02
2022-10-18T03:09:06.147Z,8.98
2022-10-18T03:11:34.921Z,8.95
2022-10-18T03:14:03.422Z,8.94
2022-10-18T03:16:34.023Z,8.93
2022-10-18T03:19:02.678Z,8.92
2022-10-18T03:21:31.263Z,8.90
2022-10-18T03:24:01.101Z,8.87
2022-10-18T03:26:29.573Z,8.82
2022-10-18T03:28:58.072Z,8.80
2022-10-18T03:31:26.909Z,8.80
2022-10-18T03:33:55.704Z,8.78
2022-10-18T03:36:29.545Z,8.78
2022-10-18T03:38:58.053Z,8.74
2022-10-18T03:41:27.852Z,8.72
2022-10-18T03:43:56.345Z,8.71
2022-10-18T03:46:24.740Z,8.71
2022-10-18T03:48:53.227Z,8.71
2022-10-18T03:51:21.780Z,8.69
2022-10-18T03:53:50.286Z,8.67
2022-10-18T03:56:18.730Z,8.63
2022-10-18T03:58:48.701Z,8.59
2022-10-18T04:01:17.451Z,8.59
2022-10-18T04:03:45.913Z,8.56
2022-10-18T04:06:14.378Z,8.58
2022-10-18T04:08:43.002Z,8.54
2022-10-18T04:11:12.507Z,8.53
2022-10-18T04:13:41.106Z,8.50
2022-10-18T04:16:10.938Z,8.50
2022-10-18T04:18:39.418Z,8.47
2022-10-18T04:21:08.294Z,8.45
2022-10-18T04:23:38.789Z,8.46
2022-10-18T04:26:08.055Z,8.43
2022-10-18T04:28:40.161Z,8.45
2022-10-18T04:31:11.102Z,8.41
2022-10-18T04:33:39.958Z,8.40
2022-10-18T04:36:08.952Z,8.40
2022-10-18T04:38:37.437Z,8.38
2022-10-18T04:41:05.993Z,8.37
2022-10-18T04:43:34.615Z,8.36
2022-10-18T04:46:03.410Z,8.32
2022-10-18T04:48:33.330Z,8.31
2022-10-18T04:51:01.894Z,8.30
2022-10-18T04:53:30.378Z,8.29
2022-10-18T04:55:58.827Z,8.26
2022-10-18T04:58:27.500Z,8.22
2022-10-18T05:00:56.031Z,8.23
2022-10-18T05:03:24.576Z,8.20
2022-10-18T05:06:01.883Z,8.22
2022-10-18T05:08:32.469Z,8.22
2022-10-18T05:11:02.100Z,8.21
2022-10-18T05:13:31.434Z,8.20
2022-10-18T05:16:00.916Z,8.17
2022-10-18T05:18:29.494Z,8.17
2022-10-18T09:20:13.017Z,11.76
2022-10-18T09:22:53.161Z,11.88
2022-10-18T09:25:24.294Z,12.00
2022-10-18T09:27:56.758Z,12.15
2022-10-18T09:30:36.558Z,12.22
2022-10-18T09:33:17.949Z,12.34
2022-10-18T09:35:53.648Z,12.46
2022-10-18T09:38:26.912Z,12.61
2022-10-18T09:41:03.033Z,12.79
2022-10-18T09:43:43.790Z,12.90
2022-10-18T09:46:13.757Z,13.07
2022-10-18T09:48:47.918Z,13.29
2022-10-18T09:51:22.345Z,13.46
2022-10-18T09:54:04.830Z,13.63
2022-10-18T09:56:41.943Z,13.73
2022-10-18T09:59:29.773Z,13.92
2022-10-18T10:01:58.759Z,14.11
2022-10-18T10:04:27.579Z,14.27
2022-10-18T10:07:00.325Z,14.43
2022-10-18T10:09:31.626Z,14.53
2022-10-18T10:12:00.515Z,14.60
2022-10-18T10:14:31.028Z,14.81
2022-10-18T10:17:03.488Z,14.94
2022-10-18T10:19:34.534Z,15.06
2022-10-18T10:22:23.623Z,15.25
2022-10-18T10:24:57.474Z,15.27
2022-10-18T10:27:31.440Z,15.54
2022-10-18T10:30:07.139Z,15.55
2022-10-18T10:32:48.339Z,15.44
2022-10-18T10:35:33.932Z,15.47
2022-10-18T10:38:07.825Z,15.77
2022-10-18T10:40:45.849Z,15.57
2022-10-18T10:43:36.491Z,15.56
2022-10-18T10:46:08.931Z,15.61
2022-10-18T10:48:46.665Z,15.65
2022-10-18T10:51:17.007Z,15.84
2022-10-18T10:53:52.425Z,15.82
2022-10-18T10:56:27.342Z,15.93
2022-10-18T10:58:59.357Z,16.08
2022-10-18T11:01:31.576Z,16.09
2022-10-18T11:04:03.354Z,16.12
2022-10-18T11:06:52.422Z,16.19
2022-10-18T11:09:32.165Z,16.27
2022-10-18T11:12:09.438Z,16.23
2022-10-18T11:14:42.429Z,16.32
2022-10-18T11:17:23.827Z,16.52
2022-10-18T11:20:13.980Z,16.79
2022-10-18T11:22:51.916Z,16.74
2022-10-18T11:25:26.409Z,16.71
2022-10-18T11:28:02.312Z,16.94
2022-10-18T11:30:45.921Z,17.05
2022-10-18T11:33:50.166Z,17.00
2022-10-18T11:38:58.235Z,17.12
2022-10-18T11:41:35.393Z,17.25
2022-10-18T11:44:10.389Z,17.56
2022-10-18T11:46:51.358Z,17.69
2022-10-18T11:49:32.617Z,17.94
2022-10-18T11:52:10.841Z,17.94
2022-10-18T11:54:52.481Z,18.03
2022-10-18T11:57:35.910Z,18.02
2022-10-18T12:00:16.283Z,18.33
2022-10-18T12:03:09.731Z,18.38
2022-10-18T12:05:44.667Z,18.54
2022-10-18T12:08:16.788Z,18.59
2022-10-18T12:11:06.596Z,18.75
2022-10-18T12:13:44.378Z,18.82
2022-10-18T12:16:13.727Z,19.04
2022-10-18T12:21:25.727Z,18.79
2022-10-18T12:23:59.686Z,19.17
2022-10-18T12:26:29.912Z,18.90
2022-10-18T12:29:09.829Z,18.73
2022-10-18T12:31:43.949Z,18.57
2022-10-18T12:34:28.614Z,18.45
2022-10-18T12:37:12.345Z,18.32
2022-10-18T12:40:05.123Z,18.32
2022-10-18T12:42:34.632Z,18.34
2022-10-18T12:45:18.297Z,18.03
2022-10-18T12:47:46.897Z,18.10
2022-10-18T12:50:30.060Z,17.85
2022-10-18T12:53:16.942Z,17.89
2022-10-18T12:56:34.277Z,17.82
2022-10-18T12:59:32.322Z,17.62
2022-10-18T13:02:25.749Z,17.61
2022-10-18T13:04:56.901Z,17.54
2022-10-18T13:07:43.418Z,17.42
2022-10-18T13:10:38.211Z,17.33
2022-10-18T13:13:39.619Z,17.32
2022-10-18T13:16:29.914Z,17.21
2022-10-18T13:19:18.385Z,17.23
2022-10-18T13:21:53.701Z,17.19
2022-10-18T13:24:30.421Z,17.23
2022-10-18T13:27:34.906Z,17.13
2022-10-18T13:30:27.797Z,17.28
2022-10-18T13:33:08.782Z,17.18
2022-10-18T13:35:55.820Z,17.15
2022-10-18T13:38:35.643Z,17.13
2022-10-18T13:41:06.536Z,17.18
2022-10-18T13:43:52.430Z,17.18
2022-10-18T13:46:21.298Z,17.24
2022-10-18T13:48:51.737Z,17.45
2022-10-18T13:51:46.026Z,17.23
2022-10-18T13:54:32.059Z,17.25
2022-10-18T13:57:16.973Z,17.11
2022-10-18T14:00:09.822Z,17.21
2022-10-18T14:03:01.878Z,17.24
2022-10-18T14:05:50.297Z,17.21
2022-10-18T14:08:25.932Z,17.01
2022-10-18T14:11:03.150Z,17.10
2022-10-18T14:13:40.140Z,17.05
2022-10-18T14:16:28.224Z,16.99
2022-10-18T14:19:06.129Z,16.90
2022-10-18T14:21:40.027Z,16.87
2022-10-18T14:24:25.139Z,16.96
2022-10-18T14:27:14.030Z,16.90
2022-10-18T14:29:45.124Z,16.83
2022-10-18T14:32:25.544Z,16.81
2022-10-18T14:35:09.165Z,16.62
2022-10-18T14:37:43.938Z,16.75
2022-10-18T14:43:07.742Z,16.49
2022-10-18T14:45:38.932Z,16.59
2022-10-18T14:48:14.717Z,16.53
2022-10-18T14:50:45.721Z,16.55
2022-10-18T14:53:18.777Z,16.50
2022-10-18T14:55:57.967Z,16.44
2022-10-18T14:58:29.128Z,16.40
2022-10-18T15:00:59.148Z,16.42
2022-10-18T15:03:29.483Z,16.51
2022-10-18T15:06:00.862Z,16.36
2022-10-18T15:08:36.182Z,16.38
2022-10-18T15:11:10.522Z,16.35
2022-10-18T15:13:49.641Z,16.30
2022-10-18T15:16:19.870Z,16.14
2022-10-18T15:19:01.246Z,16.17
2022-10-18T15:21:30.230Z,16.24
2022-10-18T15:24:20.150Z,16.31
2022-10-18T15:26:51.241Z,16.29
2022-10-18T15:29:24.871Z,16.30
2022-10-18T15:31:53.785Z,16.47
2022-10-18T15:34:31.653Z,16.26
2022-10-18T15:37:18.362Z,16.33
2022-10-18T15:39:48.090Z,16.17
2022-10-18T15:42:39.238Z,16.30
2022-10-18T15:45:31.518Z,16.14
2022-10-18T15:48:20.966Z,16.06
2022-10-18T15:51:06.193Z,15.90
2022-10-18T15:53:43.618Z,15.85
2022-10-18T15:56:29.909Z,15.89
2022-10-18T15:59:00.945Z,15.91
2022-10-18T16:01:36.388Z,15.77
2022-10-18T16:04:09.827Z,15.76
2022-10-18T16:06:40.609Z,15.69
2022-10-18T16:09:16.343Z,15.65
2022-10-18T16:11:45.450Z,15.58
2022-10-18T16:14:17.398Z,15.54
2022-10-18T16:16:48.056Z,15.61
2022-10-18T16:19:18.881Z,15.57
2022-10-18T16:21:47.453Z,15.51
2022-10-18T16:24:16.200Z,15.49
2022-10-18T16:26:46.061Z,15.37
2022-10-18T16:29:15.753Z,15.25
2022-10-18T16:31:46.747Z,15.25
2022-10-18T16:34:17.368Z,15.32
2022-10-18T16:36:47.790Z,15.23
2022-10-18T16:39:19.009Z,15.11
2022-10-18T16:41:48.531Z,15.08
2022-10-18T16:44:18.258Z,15.02
2022-10-18T16:46:52.532Z,14.86
2022-10-18T16:49:25.353Z,14.84
2022-10-18T16:51:55.386Z,14.79
2022-10-18T16:54:24.561Z,14.69
2022-10-18T16:56:54.378Z,14.65
2022-10-18T16:59:27.193Z,14.61
2022-10-18T17:01:57.302Z,14.54
2022-10-18T17:04:26.038Z,14.50
2022-10-18T17:06:58.484Z,14.47
2022-10-18T17:09:27.248Z,14.49
2022-10-18T17:12:12.555Z,14.42
2022-10-18T17:14:41.162Z,14.44
2022-10-18T17:17:13.927Z,14.38
2022-10-18T17:19:42.489Z,14.34
2022-10-18T17:22:13.210Z,14.33
2022-10-18T17:24:45.354Z,14.30
2022-10-18T17:27:15.886Z,14.21
2022-10-18T17:29:46.327Z,14.22
2022-10-18T17:32:20.947Z,14.16
2022-10-18T17:34:50.116Z,14.07
2022-10-18T17:37:18.637Z,14.15
2022-10-18T17:39:47.454Z,14.10
2022-10-18T17:42:15.908Z,14.01
2022-10-18T17:44:44.466Z,14.06
2022-10-18T17:47:35.131Z,14.02
2022-10-18T17:50:03.894Z,14.06
2022-10-18T17:52:32.591Z,13.98
2022-10-18T17:55:01.185Z,14.02
2022-10-18T17:57:29.859Z,13.91
2022-10-18T17:59:59.762Z,13.94
2022-10-18T18:02:28.274Z,13.90
2022-10-18T18:04:58.406Z,13.92
2022-10-18T18:07:26.918Z,13.86
2022-10-18T18:09:55.573Z,13.71
2022-10-18T18:12:24.522Z,13.82
2022-10-18T18:14:54.570Z,13.76
2022-10-18T18:17:33.670Z,13.77
2022-10-18T18:20:05.251Z,13.68
2022-10-18T18:22:37.954Z,13.68
2022-10-18T18:25:09.756Z,13.75
2022-10-18T18:27:39.113Z,13.69
2022-10-18T18:30:14.758Z,13.70
2022-10-18T18:32:45.974Z,13.65
2022-10-18T18:35:16.048Z,13.65
2022-10-18T18:37:50.303Z,13.61
2022-10-18T18:40:20.889Z,13.61
2022-10-18T18:43:07.357Z,13.49
2022-10-18T18:45:38.395Z,13.46
2022-10-18T18:48:14.179Z,13.41
2022-10-18T18:50:50.691Z,13.39
2022-10-18T18:53:20.728Z,13.36
2022-10-18T18:55:52.842Z,13.45
2022-10-18T18:58:22.273Z,13.38
2022-10-18T19:00:52.730Z,13.35
2022-10-18T19:03:23.428Z,13.30
2022-10-18T19:06:03.848Z,13.29
2022-10-18T19:08:36.833Z,13.20
2022-10-18T19:11:09.022Z,13.22
2022-10-18T19:13:40.496Z,13.26
2022-10-18T19:16:20.316Z,13.19
2022-10-18T19:18:56.249Z,13.24
2022-10-18T19:21:28.385Z,13.19
2022-10-18T19:24:17.108Z,13.10
2022-10-18T19:26:47.708Z,13.11
2022-10-18T19:29:37.718Z,13.06
2022-10-18T19:32:10.851Z,13.06
2022-10-18T19:34:40.138Z,13.09
2022-10-18T19:37:11.819Z,13.17
2022-10-18T19:39:40.664Z,13.06
2022-10-18T19:42:14.706Z,13.11
2022-10-18T19:44:46.043Z,12.98
2022-10-18T19:47:16.095Z,13.04
2022-10-18T19:49:46.506Z,12.93
2022-10-18T19:52:17.126Z,13.03
2022-10-18T19:54:45.992Z,12.97
2022-10-18T19:57:17.081Z,12.92
2022-10-18T20:00:09.790Z,12.84
2022-10-18T20:02:40.631Z,12.88
2022-10-18T20:05:09.646Z,12.89
2022-10-18T20:07:45.876Z,12.83
2022-10-18T20:27:38.181Z,12.82
2022-10-18T20:30:10.438Z,12.78
2022-10-18T20:32:42.033Z,12.87
2022-10-18T20:35:10.978Z,12.81
2022-10-18T20:37:39.496Z,12.85
2022-10-18T20:40:10.857Z,12.81
2022-10-18T20:42:43.338Z,12.83
2022-10-18T20:45:31.777Z,12.73
2022-10-18T20:48:20.191Z,12.82
2022-10-18T20:50:50.024Z,12.83
2022-10-18T20:53:18.565Z,12.81
2022-10-18T20:55:50.008Z,12.78
2022-10-18T20:58:19.942Z,12.79
2022-10-18T21:00:48.826Z,12.70
2022-10-18T21:03:17.627Z,12.74
2022-10-18T21:05:46.102Z,12.79
2022-10-18T21:08:16.210Z,12.81
2022-10-18T21:10:45.908Z,12.70
2022-10-18T21:13:19.196Z,12.74
2022-10-18T21:15:55.285Z,12.76
2022-10-18T21:18:25.642Z,12.81
2022-10-18T21:20:54.582Z,12.80
2022-10-18T21:23:23.497Z,12.78
2022-10-18T21:25:51.973Z,12.74
2022-10-18T21:28:24.050Z,12.75
2022-10-18T21:30:54.046Z,12.68
2022-10-18T21:33:22.626Z,12.74
2022-10-18T21:35:51.381Z,12.71
2022-10-18T21:38:20.041Z,12.72
2022-10-18T21:40:48.546Z,12.71
2022-10-18T21:43:17.013Z,12.70
2022-10-18T21:45:49.090Z,12.66
2022-10-18T21:48:17.618Z,12.61
2022-10-18T21:50:48.319Z,12.69
2022-10-18T21:53:18.054Z,12.60
2022-10-18T21:55:47.581Z,12.64
2022-10-18T21:58:16.574Z,12.68
2022-10-18T22:00:45.469Z,12.63
2022-10-18T22:03:16.015Z,12.59
2022-10-18T22:05:44.592Z,12.66
2022-10-18T22:08:13.097Z,12.55
2022-10-18T22:10:44.305Z,12.61
2022-10-18T22:13:12.897Z,12.61
2022-10-18T22:15:41.602Z,12.56
2022-10-18T22:18:10.305Z,12.59
2022-10-18T22:20:40.125Z,12.59
2022-10-18T22:23:11.145Z,12.58
2022-10-18T22:25:39.398Z,12.58
2022-10-18T22:28:07.882Z,12.57
2022-10-18T22:30:38.052Z,12.51
2022-10-18T22:33:07.191Z,12.42
2022-10-18T22:35:36.077Z,12.43
2022-10-18T22:38:07.225Z,12.45
2022-10-18T22:40:36.028Z,12.40
2022-10-18T22:43:04.574Z,12.41
2022-10-18T22:45:34.329Z,12.38
2022-10-18T22:48:02.876Z,12.44
2022-10-18T22:50:33.499Z,12.31
2022-10-18T22:53:02.023Z,12.29
2022-10-18T22:55:32.029Z,12.22
2022-10-18T22:58:00.522Z,12.32
2022-10-18T23:00:29.020Z,12.27
2022-10-18T23:02:57.544Z,12.30
2022-10-18T23:05:26.085Z,12.30
2022-10-18T23:08:03.671Z,12.26
2022-10-18T23:10:33.728Z,12.22
2022-10-18T23:13:02.177Z,12.27
2022-10-18T23:15:31.368Z,12.31
2022-10-18T23:18:00.323Z,12.24
2022-10-18T23:20:31.610Z,12.19
2022-10-18T23:23:00.254Z,12.24
2022-10-18T23:25:28.789Z,12.22
2022-10-18T23:27:59.415Z,12.19
2022-10-18T23:30:28.010Z,12.28
2022-10-18T23:32:56.489Z,12.27
2022-10-18T23:35:25.101Z,12.17
2022-10-18T23:37:53.633Z,12.17
2022-10-18T23:40:24.634Z,12.23
2022-10-18T23:42:53.091Z,12.31
2022-10-18T23:45:22.934Z,12.24
2022-10-18T23:47:51.377Z,12.15
2022-10-18T23:50:19.882Z,12.24
2022-10-18T23:52:48.425Z,12.15
2022-10-18T23:55:17.067Z,12.14
2022-10-18T23:57:45.625Z,12.15
